sensor_id;sensor_type;location;lat;lon;timestamp;P1;durP1;ratioP1;P2;durP2;ratioP2
48859;SDS011;34679;51.436;-2.518;2022-07-06T00:01:35;2.08;;;1.70;;
48859;SDS011;34679;51.436;-2.518;2022-07-06T00:04:01;2.88;;;1.55;;
48859;SDS011;34679;51.436;-2.518;2022-07-06T00:06:28;1.55;;;1.30;;
48859;SDS011;34679;51.436;-2.518;2022-07-06T00:08:54;2.38;;;1.60;;
48859;SDS011;34679;51.436;-2.518;2022-07-06T00:11:20;3.35;;;1.80;;
48859;SDS011;34679;51.436;-2.518;2022-07-06T00:13:46;3.60;;;1.58;;
48859;SDS011;34679;51.436;-2.518;2022-07-06T00:16:12;1.90;;;1.48;;
48859;SDS011;34679;51.436;-2.518;2022-07-06T00:18:37;1.92;;;1.83;;
48859;SDS011;34679;51.436;-2.518;2022-07-06T00:21:03;2.00;;;1.70;;
48859;SDS011;34679;51.436;-2.518;2022-07-06T00:23:29;4.22;;;2.05;;
48859;SDS011;34679;51.436;-2.518;2022-07-06T00:25:55;2.45;;;1.90;;
48859;SDS011;34679;51.436;-2.518;2022-07-06T00:28:20;4.47;;;2.13;;
48859;SDS011;34679;51.436;-2.518;2022-07-06T00:30:46;2.25;;;2.00;;
48859;SDS011;34679;51.436;-2.518;2022-07-06T00:33:12;2.65;;;1.88;;
48859;SDS011;34679;51.436;-2.518;2022-07-06T00:35:37;2.97;;;2.15;;
48859;SDS011;34679;51.436;-2.518;2022-07-06T00:38:03;3.88;;;2.05;;
48859;SDS011;34679;51.436;-2.518;2022-07-06T00:40:29;3.45;;;2.33;;
48859;SDS011;34679;51.436;-2.518;2022-07-06T00:42:55;3.58;;;2.22;;
48859;SDS011;34679;51.436;-2.518;2022-07-06T00:45:21;2.30;;;2.10;;
48859;SDS011;34679;51.436;-2.518;2022-07-06T00:47:48;2.83;;;1.90;;
48859;SDS011;34679;51.436;-2.518;2022-07-06T00:50:14;3.03;;;2.33;;
48859;SDS011;34679;51.436;-2.518;2022-07-06T00:52:51;3.42;;;2.35;;
48859;SDS011;34679;51.436;-2.518;2022-07-06T00:55:25;4.50;;;2.45;;
48859;SDS011;34679;51.436;-2.518;2022-07-06T00:57:52;3.72;;;3.10;;
48859;SDS011;34679;51.436;-2.518;2022-07-06T01:00:19;6.97;;;3.20;;
48859;SDS011;34679;51.436;-2.518;2022-07-06T01:02:48;5.35;;;3.25;;
48859;SDS011;34679;51.436;-2.518;2022-07-06T01:05:14;4.38;;;3.03;;
48859;SDS011;34679;51.436;-2.518;2022-07-06T01:07:41;4.00;;;2.97;;
48859;SDS011;34679;51.436;-2.518;2022-07-06T01:10:08;3.45;;;2.40;;
48859;SDS011;34679;51.436;-2.518;2022-07-06T01:12:36;2.00;;;1.70;;
48859;SDS011;34679;51.436;-2.518;2022-07-06T01:15:04;2.92;;;2.28;;
48859;SDS011;34679;51.436;-2.518;2022-07-06T01:17:34;3.05;;;2.50;;
48859;SDS011;34679;51.436;-2.518;2022-07-06T01:20:07;2.63;;;2.30;;
48859;SDS011;34679;51.436;-2.518;2022-07-06T01:22:43;5.43;;;2.55;;
48859;SDS011;34679;51.436;-2.518;2022-07-06T01:25:09;2.97;;;2.78;;
48859;SDS011;34679;51.436;-2.518;2022-07-06T01:27:36;2.97;;;2.20;;
48859;SDS011;34679;51.436;-2.518;2022-07-06T01:30:10;6.75;;;2.92;;
48859;SDS011;34679;51.436;-2.518;2022-07-06T01:32:38;3.58;;;2.55;;
48859;SDS011;34679;51.436;-2.518;2022-07-06T01:35:05;2.90;;;2.17;;
48859;SDS011;34679;51.436;-2.518;2022-07-06T01:37:32;2.53;;;2.10;;
48859;SDS011;34679;51.436;-2.518;2022-07-06T01:39:58;2.38;;;2.00;;
48859;SDS011;34679;51.436;-2.518;2022-07-06T01:42:25;3.17;;;2.38;;
48859;SDS011;34679;51.436;-2.518;2022-07-06T01:44:51;3.97;;;2.38;;
48859;SDS011;34679;51.436;-2.518;2022-07-06T01:47:17;4.32;;;2.13;;
48859;SDS011;34679;51.436;-2.518;2022-07-06T01:49:43;2.22;;;2.03;;
48859;SDS011;34679;51.436;-2.518;2022-07-06T01:52:09;2.42;;;1.98;;
48859;SDS011;34679;51.436;-2.518;2022-07-06T01:54:34;7.50;;;2.38;;
48859;SDS011;34679;51.436;-2.518;2022-07-06T01:57:01;5.82;;;2.20;;
48859;SDS011;34679;51.436;-2.518;2022-07-06T01:59:26;2.45;;;2.17;;
48859;SDS011;34679;51.436;-2.518;2022-07-06T02:01:52;2.38;;;2.17;;
48859;SDS011;34679;51.436;-2.518;2022-07-06T02:04:18;2.67;;;2.17;;
48859;SDS011;34679;51.436;-2.518;2022-07-06T02:06:43;4.10;;;1.90;;
48859;SDS011;34679;51.436;-2.518;2022-07-06T02:09:09;3.38;;;1.88;;
48859;SDS011;34679;51.436;-2.518;2022-07-06T02:11:35;4.28;;;2.55;;
48859;SDS011;34679;51.436;-2.518;2022-07-06T02:14:00;3.20;;;2.10;;
48859;SDS011;34679;51.436;-2.518;2022-07-06T02:16:26;3.40;;;2.00;;
48859;SDS011;34679;51.436;-2.518;2022-07-06T02:18:52;2.75;;;2.10;;
48859;SDS011;34679;51.436;-2.518;2022-07-06T02:21:17;4.13;;;2.25;;
48859;SDS011;34679;51.436;-2.518;2022-07-06T02:23:43;6.32;;;3.92;;
48859;SDS011;34679;51.436;-2.518;2022-07-06T02:26:09;2.70;;;2.10;;
48859;SDS011;34679;51.436;-2.518;2022-07-06T02:28:35;4.10;;;2.08;;
48859;SDS011;34679;51.436;-2.518;2022-07-06T02:31:00;3.08;;;2.55;;
48859;SDS011;34679;51.436;-2.518;2022-07-06T02:33:26;2.25;;;1.98;;
48859;SDS011;34679;51.436;-2.518;2022-07-06T02:35:52;2.05;;;1.83;;
48859;SDS011;34679;51.436;-2.518;2022-07-06T02:38:18;2.35;;;1.70;;
48859;SDS011;34679;51.436;-2.518;2022-07-06T02:40:44;2.00;;;1.90;;
48859;SDS011;34679;51.436;-2.518;2022-07-06T02:43:09;3.15;;;2.08;;
48859;SDS011;34679;51.436;-2.518;2022-07-06T02:45:35;2.92;;;2.00;;
48859;SDS011;34679;51.436;-2.518;2022-07-06T02:48:01;2.17;;;1.75;;
48859;SDS011;34679;51.436;-2.518;2022-07-06T02:50:27;6.10;;;1.92;;
48859;SDS011;34679;51.436;-2.518;2022-07-06T02:52:52;2.03;;;1.70;;
48859;SDS011;34679;51.436;-2.518;2022-07-06T02:55:20;3.03;;;2.03;;
48859;SDS011;34679;51.436;-2.518;2022-07-06T02:57:45;2.38;;;2.00;;
48859;SDS011;34679;51.436;-2.518;2022-07-06T03:00:11;2.65;;;1.80;;
48859;SDS011;34679;51.436;-2.518;2022-07-06T03:02:37;2.17;;;1.90;;
48859;SDS011;34679;51.436;-2.518;2022-07-06T03:05:03;2.05;;;1.85;;
48859;SDS011;34679;51.436;-2.518;2022-07-06T03:07:29;3.67;;;1.98;;
48859;SDS011;34679;51.436;-2.518;2022-07-06T03:09:55;3.25;;;2.00;;
48859;SDS011;34679;51.436;-2.518;2022-07-06T03:12:21;2.00;;;1.90;;
48859;SDS011;34679;51.436;-2.518;2022-07-06T03:14:46;2.67;;;2.10;;
48859;SDS011;34679;51.436;-2.518;2022-07-06T03:17:12;4.90;;;2.20;;
48859;SDS011;34679;51.436;-2.518;2022-07-06T03:19:38;4.57;;;2.30;;
48859;SDS011;34679;51.436;-2.518;2022-07-06T03:22:03;2.95;;;2.40;;
48859;SDS011;34679;51.436;-2.518;2022-07-06T03:24:29;3.45;;;2.00;;
48859;SDS011;34679;51.436;-2.518;2022-07-06T03:26:55;2.75;;;2.45;;
48859;SDS011;34679;51.436;-2.518;2022-07-06T03:29:21;2.08;;;1.90;;
48859;SDS011;34679;51.436;-2.518;2022-07-06T03:31:46;4.05;;;2.40;;
48859;SDS011;34679;51.436;-2.518;2022-07-06T03:34:12;3.67;;;2.38;;
48859;SDS011;34679;51.436;-2.518;2022-07-06T03:36:38;2.30;;;2.10;;
48859;SDS011;34679;51.436;-2.518;2022-07-06T03:39:04;4.07;;;2.20;;
48859;SDS011;34679;51.436;-2.518;2022-07-06T03:41:30;1.95;;;1.85;;
48859;SDS011;34679;51.436;-2.518;2022-07-06T03:43:57;6.15;;;2.70;;
48859;SDS011;34679;51.436;-2.518;2022-07-06T03:46:23;3.70;;;2.13;;
48859;SDS011;34679;51.436;-2.518;2022-07-06T03:48:49;3.95;;;2.17;;
48859;SDS011;34679;51.436;-2.518;2022-07-06T03:51:15;4.38;;;2.08;;
48859;SDS011;34679;51.436;-2.518;2022-07-06T03:53:41;3.55;;;2.28;;
48859;SDS011;34679;51.436;-2.518;2022-07-06T03:56:06;3.45;;;2.20;;
48859;SDS011;34679;51.436;-2.518;2022-07-06T03:58:51;2.20;;;2.00;;
48859;SDS011;34679;51.436;-2.518;2022-07-06T04:01:16;2.53;;;2.33;;
48859;SDS011;34679;51.436;-2.518;2022-07-06T04:03:42;2.28;;;1.90;;
48859;SDS011;34679;51.436;-2.518;2022-07-06T04:06:09;2.58;;;2.17;;
48859;SDS011;34679;51.436;-2.518;2022-07-06T04:08:35;2.92;;;2.50;;
48859;SDS011;34679;51.436;-2.518;2022-07-06T04:11:01;2.80;;;2.00;;
48859;SDS011;34679;51.436;-2.518;2022-07-06T04:13:26;2.72;;;2.45;;
48859;SDS011;34679;51.436;-2.518;2022-07-06T04:15:52;2.20;;;2.00;;
48859;SDS011;34679;51.436;-2.518;2022-07-06T04:18:18;2.45;;;1.95;;
48859;SDS011;34679;51.436;-2.518;2022-07-06T04:20:44;2.08;;;1.95;;
48859;SDS011;34679;51.436;-2.518;2022-07-06T04:23:09;3.00;;;2.30;;
48859;SDS011;34679;51.436;-2.518;2022-07-06T04:25:35;2.15;;;2.00;;
48859;SDS011;34679;51.436;-2.518;2022-07-06T04:28:01;4.90;;;2.55;;
48859;SDS011;34679;51.436;-2.518;2022-07-06T04:30:26;2.20;;;2.00;;
48859;SDS011;34679;51.436;-2.518;2022-07-06T04:32:52;1.90;;;1.80;;
48859;SDS011;34679;51.436;-2.518;2022-07-06T04:35:18;3.25;;;2.00;;
48859;SDS011;34679;51.436;-2.518;2022-07-06T04:37:44;1.90;;;1.80;;
48859;SDS011;34679;51.436;-2.518;2022-07-06T04:40:13;11.52;;;4.90;;
48859;SDS011;34679;51.436;-2.518;2022-07-06T04:42:39;5.82;;;5.15;;
48859;SDS011;34679;51.436;-2.518;2022-07-06T04:45:05;2.95;;;2.63;;
48859;SDS011;34679;51.436;-2.518;2022-07-06T04:47:31;2.85;;;2.65;;
48859;SDS011;34679;51.436;-2.518;2022-07-06T04:49:57;3.10;;;2.70;;
48859;SDS011;34679;51.436;-2.518;2022-07-06T04:52:22;4.22;;;3.83;;
48859;SDS011;34679;51.436;-2.518;2022-07-06T04:54:48;4.25;;;3.58;;
48859;SDS011;34679;51.436;-2.518;2022-07-06T04:57:14;7.50;;;3.45;;
48859;SDS011;34679;51.436;-2.518;2022-07-06T04:59:40;4.93;;;3.05;;
48859;SDS011;34679;51.436;-2.518;2022-07-06T05:02:06;5.20;;;3.33;;
48859;SDS011;34679;51.436;-2.518;2022-07-06T05:04:31;5.35;;;3.03;;
48859;SDS011;34679;51.436;-2.518;2022-07-06T05:06:57;3.72;;;3.42;;
48859;SDS011;34679;51.436;-2.518;2022-07-06T05:09:23;5.30;;;2.80;;
48859;SDS011;34679;51.436;-2.518;2022-07-06T05:11:49;4.82;;;2.50;;
48859;SDS011;34679;51.436;-2.518;2022-07-06T05:14:15;4.60;;;2.60;;
48859;SDS011;34679;51.436;-2.518;2022-07-06T05:16:41;1.92;;;1.77;;
48859;SDS011;34679;51.436;-2.518;2022-07-06T05:19:06;2.58;;;2.15;;
48859;SDS011;34679;51.436;-2.518;2022-07-06T05:21:32;13.23;;;2.40;;
48859;SDS011;34679;51.436;-2.518;2022-07-06T05:23:58;6.93;;;2.30;;
48859;SDS011;34679;51.436;-2.518;2022-07-06T05:26:23;3.85;;;2.10;;
48859;SDS011;34679;51.436;-2.518;2022-07-06T05:28:49;5.00;;;2.13;;
48859;SDS011;34679;51.436;-2.518;2022-07-06T05:31:15;2.65;;;2.10;;
48859;SDS011;34679;51.436;-2.518;2022-07-06T05:33:41;3.33;;;2.70;;
48859;SDS011;34679;51.436;-2.518;2022-07-06T05:36:07;4.32;;;2.50;;
48859;SDS011;34679;51.436;-2.518;2022-07-06T05:38:32;2.35;;;2.15;;
48859;SDS011;34679;51.436;-2.518;2022-07-06T05:40:59;3.33;;;2.30;;
48859;SDS011;34679;51.436;-2.518;2022-07-06T05:43:24;2.60;;;2.20;;
48859;SDS011;34679;51.436;-2.518;2022-07-06T05:45:50;5.88;;;2.15;;
48859;SDS011;34679;51.436;-2.518;2022-07-06T05:48:16;2.78;;;2.08;;
48859;SDS011;34679;51.436;-2.518;2022-07-06T05:51:00;2.28;;;1.80;;
48859;SDS011;34679;51.436;-2.518;2022-07-06T05:53:25;2.72;;;2.15;;
48859;SDS011;34679;51.436;-2.518;2022-07-06T05:55:51;2.90;;;1.90;;
48859;SDS011;34679;51.436;-2.518;2022-07-06T05:58:17;2.10;;;1.90;;
48859;SDS011;34679;51.436;-2.518;2022-07-06T06:00:43;2.58;;;1.90;;
48859;SDS011;34679;51.436;-2.518;2022-07-06T06:03:09;3.70;;;2.00;;
48859;SDS011;34679;51.436;-2.518;2022-07-06T06:05:35;2.65;;;1.90;;
48859;SDS011;34679;51.436;-2.518;2022-07-06T06:08:00;5.07;;;2.08;;
48859;SDS011;34679;51.436;-2.518;2022-07-06T06:10:26;2.78;;;2.28;;
48859;SDS011;34679;51.436;-2.518;2022-07-06T06:12:52;5.03;;;2.35;;
48859;SDS011;34679;51.436;-2.518;2022-07-06T06:15:18;5.88;;;1.95;;
48859;SDS011;34679;51.436;-2.518;2022-07-06T06:17:44;3.30;;;2.40;;
48859;SDS011;34679;51.436;-2.518;2022-07-06T06:20:11;2.22;;;1.90;;
48859;SDS011;34679;51.436;-2.518;2022-07-06T06:22:45;6.00;;;2.20;;
48859;SDS011;34679;51.436;-2.518;2022-07-06T06:25:11;4.03;;;2.10;;
48859;SDS011;34679;51.436;-2.518;2022-07-06T06:27:38;3.47;;;2.72;;
48859;SDS011;34679;51.436;-2.518;2022-07-06T06:30:04;5.95;;;2.33;;
48859;SDS011;34679;51.436;-2.518;2022-07-06T06:32:30;3.08;;;2.03;;
48859;SDS011;34679;51.436;-2.518;2022-07-06T06:34:56;4.03;;;2.25;;
48859;SDS011;34679;51.436;-2.518;2022-07-06T06:37:21;3.65;;;2.30;;
48859;SDS011;34679;51.436;-2.518;2022-07-06T06:39:47;2.95;;;2.05;;
48859;SDS011;34679;51.436;-2.518;2022-07-06T06:42:12;7.00;;;2.13;;
48859;SDS011;34679;51.436;-2.518;2022-07-06T06:44:38;4.40;;;2.17;;
48859;SDS011;34679;51.436;-2.518;2022-07-06T06:47:04;6.03;;;2.00;;
48859;SDS011;34679;51.436;-2.518;2022-07-06T06:49:29;2.65;;;1.92;;
48859;SDS011;34679;51.436;-2.518;2022-07-06T06:51:55;1.95;;;1.73;;
48859;SDS011;34679;51.436;-2.518;2022-07-06T06:54:21;4.68;;;2.20;;
48859;SDS011;34679;51.436;-2.518;2022-07-06T06:56:47;2.85;;;2.20;;
48859;SDS011;34679;51.436;-2.518;2022-07-06T06:59:12;2.53;;;1.50;;
48859;SDS011;34679;51.436;-2.518;2022-07-06T07:01:38;2.50;;;1.67;;
48859;SDS011;34679;51.436;-2.518;2022-07-06T07:04:04;2.33;;;1.48;;
48859;SDS011;34679;51.436;-2.518;2022-07-06T07:06:31;2.20;;;1.77;;
48859;SDS011;34679;51.436;-2.518;2022-07-06T07:08:57;1.90;;;1.60;;
48859;SDS011;34679;51.436;-2.518;2022-07-06T07:11:23;2.30;;;1.58;;
48859;SDS011;34679;51.436;-2.518;2022-07-06T07:13:49;2.28;;;1.75;;
48859;SDS011;34679;51.436;-2.518;2022-07-06T07:16:14;2.38;;;1.40;;
48859;SDS011;34679;51.436;-2.518;2022-07-06T07:18:40;7.03;;;2.10;;
48859;SDS011;34679;51.436;-2.518;2022-07-06T07:21:06;7.40;;;1.90;;
48859;SDS011;34679;51.436;-2.518;2022-07-06T07:23:32;7.00;;;1.58;;
48859;SDS011;34679;51.436;-2.518;2022-07-06T07:25:57;7.43;;;2.25;;
48859;SDS011;34679;51.436;-2.518;2022-07-06T07:28:23;3.22;;;1.42;;
48859;SDS011;34679;51.436;-2.518;2022-07-06T07:30:49;5.00;;;1.50;;
48859;SDS011;34679;51.436;-2.518;2022-07-06T07:33:15;3.42;;;1.23;;
48859;SDS011;34679;51.436;-2.518;2022-07-06T07:35:41;1.25;;;1.00;;
48859;SDS011;34679;51.436;-2.518;2022-07-06T07:38:07;3.90;;;1.38;;
48859;SDS011;34679;51.436;-2.518;2022-07-06T07:40:33;2.42;;;1.23;;
48859;SDS011;34679;51.436;-2.518;2022-07-06T07:43:00;4.07;;;1.50;;
48859;SDS011;34679;51.436;-2.518;2022-07-06T07:45:25;2.22;;;1.50;;
48859;SDS011;34679;51.436;-2.518;2022-07-06T07:47:51;5.50;;;1.50;;
48859;SDS011;34679;51.436;-2.518;2022-07-06T07:50:17;4.40;;;1.33;;
48859;SDS011;34679;51.436;-2.518;2022-07-06T07:52:43;2.95;;;1.00;;
48859;SDS011;34679;51.436;-2.518;2022-07-06T07:55:09;3.10;;;1.23;;
48859;SDS011;34679;51.436;-2.518;2022-07-06T07:57:35;1.52;;;1.00;;
48859;SDS011;34679;51.436;-2.518;2022-07-06T08:00:01;2.28;;;0.90;;
48859;SDS011;34679;51.436;-2.518;2022-07-06T08:02:27;1.38;;;1.10;;
48859;SDS011;34679;51.436;-2.518;2022-07-06T08:04:53;1.20;;;0.88;;
48859;SDS011;34679;51.436;-2.518;2022-07-06T08:07:18;4.78;;;0.95;;
48859;SDS011;34679;51.436;-2.518;2022-07-06T08:09:44;1.20;;;0.80;;
48859;SDS011;34679;51.436;-2.518;2022-07-06T08:12:10;2.47;;;1.00;;
48859;SDS011;34679;51.436;-2.518;2022-07-06T08:14:36;1.35;;;1.00;;
48859;SDS011;34679;51.436;-2.518;2022-07-06T08:17:02;2.72;;;1.30;;
48859;SDS011;34679;51.436;-2.518;2022-07-06T08:19:28;1.92;;;1.02;;
48859;SDS011;34679;51.436;-2.518;2022-07-06T08:21:55;2.55;;;0.90;;
48859;SDS011;34679;51.436;-2.518;2022-07-06T08:24:21;4.22;;;1.23;;
48859;SDS011;34679;51.436;-2.518;2022-07-06T08:26:47;1.15;;;0.88;;
48859;SDS011;34679;51.436;-2.518;2022-07-06T08:29:13;1.15;;;1.05;;
48859;SDS011;34679;51.436;-2.518;2022-07-06T08:31:39;6.75;;;1.20;;
48859;SDS011;34679;51.436;-2.518;2022-07-06T08:34:04;2.30;;;0.70;;
48859;SDS011;34679;51.436;-2.518;2022-07-06T08:36:30;2.05;;;1.08;;
48859;SDS011;34679;51.436;-2.518;2022-07-06T08:38:56;4.72;;;0.70;;
48859;SDS011;34679;51.436;-2.518;2022-07-06T08:41:23;1.05;;;0.55;;
48859;SDS011;34679;51.436;-2.518;2022-07-06T08:46:25;1.65;;;0.65;;
48859;SDS011;34679;51.436;-2.518;2022-07-06T08:48:54;1.00;;;0.52;;
48859;SDS011;34679;51.436;-2.518;2022-07-06T08:51:20;0.98;;;0.43;;
48859;SDS011;34679;51.436;-2.518;2022-07-06T08:53:47;0.85;;;0.45;;
48859;SDS011;34679;51.436;-2.518;2022-07-06T08:56:15;0.77;;;0.50;;
48859;SDS011;34679;51.436;-2.518;2022-07-06T08:58:41;1.48;;;0.40;;
48859;SDS011;34679;51.436;-2.518;2022-07-06T09:01:08;1.52;;;0.40;;
48859;SDS011;34679;51.436;-2.518;2022-07-06T09:03:35;0.80;;;0.35;;
48859;SDS011;34679;51.436;-2.518;2022-07-06T09:06:02;1.52;;;0.60;;
48859;SDS011;34679;51.436;-2.518;2022-07-06T09:08:30;2.47;;;0.60;;
48859;SDS011;34679;51.436;-2.518;2022-07-06T09:10:56;0.80;;;0.60;;
48859;SDS011;34679;51.436;-2.518;2022-07-06T09:13:22;0.65;;;0.50;;
48859;SDS011;34679;51.436;-2.518;2022-07-06T09:15:48;0.93;;;0.50;;
48859;SDS011;34679;51.436;-2.518;2022-07-06T09:18:14;0.75;;;0.60;;
48859;SDS011;34679;51.436;-2.518;2022-07-06T09:20:40;0.70;;;0.60;;
48859;SDS011;34679;51.436;-2.518;2022-07-06T09:23:06;1.67;;;0.60;;
48859;SDS011;34679;51.436;-2.518;2022-07-06T09:25:32;1.60;;;0.80;;
48859;SDS011;34679;51.436;-2.518;2022-07-06T09:27:59;0.93;;;0.77;;
48859;SDS011;34679;51.436;-2.518;2022-07-06T09:30:27;1.02;;;0.60;;
48859;SDS011;34679;51.436;-2.518;2022-07-06T09:32:54;1.00;;;0.60;;
48859;SDS011;34679;51.436;-2.518;2022-07-06T09:35:28;2.40;;;0.90;;
48859;SDS011;34679;51.436;-2.518;2022-07-06T09:38:02;0.98;;;0.57;;
48859;SDS011;34679;51.436;-2.518;2022-07-06T09:40:33;1.48;;;0.60;;
48859;SDS011;34679;51.436;-2.518;2022-07-06T09:43:19;0.50;;;0.50;;
48859;SDS011;34679;51.436;-2.518;2022-07-06T09:45:56;2.00;;;0.60;;
48859;SDS011;34679;51.436;-2.518;2022-07-06T09:48:26;1.80;;;0.70;;
48859;SDS011;34679;51.436;-2.518;2022-07-06T09:50:53;1.40;;;0.55;;
48859;SDS011;34679;51.436;-2.518;2022-07-06T09:53:26;1.98;;;0.68;;
48859;SDS011;34679;51.436;-2.518;2022-07-06T09:55:53;1.33;;;0.65;;
48859;SDS011;34679;51.436;-2.518;2022-07-06T09:58:20;1.95;;;0.60;;
48859;SDS011;34679;51.436;-2.518;2022-07-06T10:00:47;1.98;;;0.50;;
48859;SDS011;34679;51.436;-2.518;2022-07-06T10:03:14;1.30;;;0.60;;
48859;SDS011;34679;51.436;-2.518;2022-07-06T10:05:42;2.05;;;0.60;;
48859;SDS011;34679;51.436;-2.518;2022-07-06T10:08:11;4.00;;;0.68;;
48859;SDS011;34679;51.436;-2.518;2022-07-06T10:10:37;0.82;;;0.50;;
48859;SDS011;34679;51.436;-2.518;2022-07-06T10:13:05;1.08;;;0.40;;
48859;SDS011;34679;51.436;-2.518;2022-07-06T10:15:31;0.40;;;0.40;;
48859;SDS011;34679;51.436;-2.518;2022-07-06T10:18:02;0.88;;;0.60;;
48859;SDS011;34679;51.436;-2.518;2022-07-06T10:20:33;3.80;;;0.60;;
48859;SDS011;34679;51.436;-2.518;2022-07-06T10:23:02;1.98;;;0.60;;
48859;SDS011;34679;51.436;-2.518;2022-07-06T10:25:30;4.63;;;0.60;;
48859;SDS011;34679;51.436;-2.518;2022-07-06T10:27:57;1.40;;;0.50;;
48859;SDS011;34679;51.436;-2.518;2022-07-06T10:30:24;2.10;;;0.82;;
48859;SDS011;34679;51.436;-2.518;2022-07-06T10:32:52;0.88;;;0.50;;
48859;SDS011;34679;51.436;-2.518;2022-07-06T10:35:19;5.75;;;1.00;;
48859;SDS011;34679;51.436;-2.518;2022-07-06T10:37:46;1.27;;;0.63;;
48859;SDS011;34679;51.436;-2.518;2022-07-06T10:40:34;0.52;;;0.50;;
48859;SDS011;34679;51.436;-2.518;2022-07-06T10:43:20;1.30;;;0.50;;
48859;SDS011;34679;51.436;-2.518;2022-07-06T10:50:37;1.90;;;0.98;;
48859;SDS011;34679;51.436;-2.518;2022-07-06T10:53:27;3.97;;;0.98;;
48859;SDS011;34679;51.436;-2.518;2022-07-06T10:55:55;3.97;;;1.98;;
48859;SDS011;34679;51.436;-2.518;2022-07-06T11:01:12;2.65;;;0.80;;
48859;SDS011;34679;51.436;-2.518;2022-07-06T11:03:39;3.15;;;0.65;;
48859;SDS011;34679;51.436;-2.518;2022-07-06T11:11:11;4.00;;;0.80;;
48859;SDS011;34679;51.436;-2.518;2022-07-06T11:13:52;1.58;;;0.65;;
48859;SDS011;34679;51.436;-2.518;2022-07-06T11:16:27;1.08;;;0.52;;
48859;SDS011;34679;51.436;-2.518;2022-07-06T11:19:11;0.85;;;0.52;;
48859;SDS011;34679;51.436;-2.518;2022-07-06T11:21:45;1.33;;;0.95;;
48859;SDS011;34679;51.436;-2.518;2022-07-06T11:24:16;2.28;;;0.60;;
48859;SDS011;34679;51.436;-2.518;2022-07-06T11:26:56;1.33;;;0.82;;
48859;SDS011;34679;51.436;-2.518;2022-07-06T11:29:24;2.55;;;0.55;;
48859;SDS011;34679;51.436;-2.518;2022-07-06T11:31:53;2.25;;;0.50;;
48859;SDS011;34679;51.436;-2.518;2022-07-06T11:34:24;0.82;;;0.43;;
48859;SDS011;34679;51.436;-2.518;2022-07-06T11:36:55;0.60;;;0.50;;
48859;SDS011;34679;51.436;-2.518;2022-07-06T11:39:21;2.65;;;0.80;;
48859;SDS011;34679;51.436;-2.518;2022-07-06T11:41:47;1.33;;;0.60;;
48859;SDS011;34679;51.436;-2.518;2022-07-06T11:44:13;0.60;;;0.50;;
48859;SDS011;34679;51.436;-2.518;2022-07-06T11:46:38;1.15;;;0.60;;
48859;SDS011;34679;51.436;-2.518;2022-07-06T11:49:08;1.65;;;0.60;;
48859;SDS011;34679;51.436;-2.518;2022-07-06T11:51:37;1.33;;;0.50;;
48859;SDS011;34679;51.436;-2.518;2022-07-06T11:54:08;1.48;;;0.50;;
48859;SDS011;34679;51.436;-2.518;2022-07-06T11:56:49;0.93;;;0.60;;
48859;SDS011;34679;51.436;-2.518;2022-07-06T11:59:19;0.77;;;0.47;;
48859;SDS011;34679;51.436;-2.518;2022-07-06T12:01:50;2.03;;;0.50;;
48859;SDS011;34679;51.436;-2.518;2022-07-06T12:04:27;2.13;;;0.60;;
48859;SDS011;34679;51.436;-2.518;2022-07-06T12:06:54;1.63;;;0.70;;
48859;SDS011;34679;51.436;-2.518;2022-07-06T12:09:20;0.75;;;0.43;;
48859;SDS011;34679;51.436;-2.518;2022-07-06T12:11:47;1.15;;;0.50;;
48859;SDS011;34679;51.436;-2.518;2022-07-06T12:14:14;1.05;;;0.70;;
48859;SDS011;34679;51.436;-2.518;2022-07-06T12:16:44;2.92;;;0.68;;
48859;SDS011;34679;51.436;-2.518;2022-07-06T12:19:12;2.00;;;0.90;;
48859;SDS011;34679;51.436;-2.518;2022-07-06T12:21:43;1.85;;;0.75;;
48859;SDS011;34679;51.436;-2.518;2022-07-06T12:24:25;3.38;;;0.80;;
48859;SDS011;34679;51.436;-2.518;2022-07-06T12:26:54;1.77;;;0.80;;
48859;SDS011;34679;51.436;-2.518;2022-07-06T12:29:20;2.42;;;0.90;;
48859;SDS011;34679;51.436;-2.518;2022-07-06T12:34:27;1.70;;;0.80;;
48859;SDS011;34679;51.436;-2.518;2022-07-06T12:37:04;1.53;;;0.77;;
48859;SDS011;34679;51.436;-2.518;2022-07-06T12:39:31;7.30;;;1.05;;
48859;SDS011;34679;51.436;-2.518;2022-07-06T12:42:05;2.42;;;1.05;;
48859;SDS011;34679;51.436;-2.518;2022-07-06T12:44:31;3.83;;;1.30;;
48859;SDS011;34679;51.436;-2.518;2022-07-06T12:49:31;4.45;;;1.00;;
48859;SDS011;34679;51.436;-2.518;2022-07-06T12:54:30;5.00;;;1.17;;
48859;SDS011;34679;51.436;-2.518;2022-07-06T12:59:34;3.35;;;1.02;;
48859;SDS011;34679;51.436;-2.518;2022-07-06T13:02:02;4.45;;;1.00;;
48859;SDS011;34679;51.436;-2.518;2022-07-06T13:04:30;1.95;;;0.93;;
48859;SDS011;34679;51.436;-2.518;2022-07-06T13:06:57;5.05;;;1.17;;
48859;SDS011;34679;51.436;-2.518;2022-07-06T13:09:23;2.70;;;1.00;;
48859;SDS011;34679;51.436;-2.518;2022-07-06T13:11:49;6.47;;;1.55;;
48859;SDS011;34679;51.436;-2.518;2022-07-06T13:14:16;2.85;;;0.93;;
48859;SDS011;34679;51.436;-2.518;2022-07-06T13:16:43;4.70;;;1.02;;
48859;SDS011;34679;51.436;-2.518;2022-07-06T13:19:10;2.65;;;1.00;;
48859;SDS011;34679;51.436;-2.518;2022-07-06T13:21:36;2.17;;;1.00;;
48859;SDS011;34679;51.436;-2.518;2022-07-06T13:24:02;8.07;;;2.15;;
48859;SDS011;34679;51.436;-2.518;2022-07-06T13:26:29;5.28;;;1.02;;
48859;SDS011;34679;51.436;-2.518;2022-07-06T13:28:58;5.55;;;1.40;;
48859;SDS011;34679;51.436;-2.518;2022-07-06T13:31:25;10.63;;;1.73;;
48859;SDS011;34679;51.436;-2.518;2022-07-06T13:33:52;3.13;;;1.13;;
48859;SDS011;34679;51.436;-2.518;2022-07-06T13:36:18;5.60;;;0.98;;
48859;SDS011;34679;51.436;-2.518;2022-07-06T13:38:44;5.57;;;1.67;;
48859;SDS011;34679;51.436;-2.518;2022-07-06T13:41:10;1.27;;;0.85;;
48859;SDS011;34679;51.436;-2.518;2022-07-06T13:43:35;3.97;;;1.00;;
48859;SDS011;34679;51.436;-2.518;2022-07-06T13:46:05;4.00;;;1.00;;
48859;SDS011;34679;51.436;-2.518;2022-07-06T13:48:32;7.22;;;1.38;;
48859;SDS011;34679;51.436;-2.518;2022-07-06T13:50:59;7.35;;;1.27;;
48859;SDS011;34679;51.436;-2.518;2022-07-06T13:53:25;2.67;;;1.20;;
48859;SDS011;34679;51.436;-2.518;2022-07-06T13:55:51;3.28;;;0.98;;
48859;SDS011;34679;51.436;-2.518;2022-07-06T13:58:17;5.00;;;1.25;;
48859;SDS011;34679;51.436;-2.518;2022-07-06T14:00:43;4.63;;;0.80;;
48859;SDS011;34679;51.436;-2.518;2022-07-06T14:03:09;4.72;;;0.88;;
48859;SDS011;34679;51.436;-2.518;2022-07-06T14:05:35;3.33;;;1.08;;
48859;SDS011;34679;51.436;-2.518;2022-07-06T14:08:00;4.85;;;1.02;;
48859;SDS011;34679;51.436;-2.518;2022-07-06T14:10:26;8.95;;;1.20;;
48859;SDS011;34679;51.436;-2.518;2022-07-06T14:12:52;2.45;;;0.70;;
48859;SDS011;34679;51.436;-2.518;2022-07-06T14:15:18;5.32;;;1.10;;
48859;SDS011;34679;51.436;-2.518;2022-07-06T14:17:44;3.30;;;0.93;;
48859;SDS011;34679;51.436;-2.518;2022-07-06T14:20:12;6.75;;;1.25;;
48859;SDS011;34679;51.436;-2.518;2022-07-06T14:22:38;6.75;;;1.10;;
48859;SDS011;34679;51.436;-2.518;2022-07-06T14:25:04;4.95;;;1.13;;
48859;SDS011;34679;51.436;-2.518;2022-07-06T14:27:31;6.30;;;1.50;;
48859;SDS011;34679;51.436;-2.518;2022-07-06T14:29:58;7.43;;;1.00;;
48859;SDS011;34679;51.436;-2.518;2022-07-06T14:32:23;2.78;;;1.10;;
48859;SDS011;34679;51.436;-2.518;2022-07-06T14:34:49;5.35;;;1.30;;
48859;SDS011;34679;51.436;-2.518;2022-07-06T14:37:15;10.85;;;2.28;;
48859;SDS011;34679;51.436;-2.518;2022-07-06T14:39:41;6.47;;;1.02;;
48859;SDS011;34679;51.436;-2.518;2022-07-06T14:42:07;7.07;;;1.20;;
48859;SDS011;34679;51.436;-2.518;2022-07-06T14:44:33;2.00;;;0.93;;
48859;SDS011;34679;51.436;-2.518;2022-07-06T14:46:59;5.40;;;1.33;;
48859;SDS011;34679;51.436;-2.518;2022-07-06T14:49:24;3.08;;;1.10;;
48859;SDS011;34679;51.436;-2.518;2022-07-06T14:51:50;5.05;;;1.30;;
48859;SDS011;34679;51.436;-2.518;2022-07-06T14:54:16;4.63;;;1.27;;
48859;SDS011;34679;51.436;-2.518;2022-07-06T14:56:41;3.42;;;1.17;;
48859;SDS011;34679;51.436;-2.518;2022-07-06T14:59:07;4.25;;;1.23;;